This is the latest recevied weather packets stored in our database for station/object KB3VSP. If no packets are shown the sender has not sent any weather packets the latest 10 day(s).
| Time | Temp. | Humidity | Pressure | Rain* | Wind** | Luminosity | Snow |
|---|---|---|---|---|---|---|---|
| 1778033154 | 16.67° C | 83% | 1009 hPa | 0 mm | - | 0 W/m² | - |
| 1778032851 | 16.67° C | 81% | 1008.5 hPa | 0 mm | - | 0 W/m² | - |
| 1778032549 | 17.22° C | 79% | 1008.4 hPa | 0 mm | - | 0 W/m² | - |
| 1778032245 | 17.22° C | 78% | 1008.3 hPa | 0 mm | - | 0 W/m² | - |
| 1778031943 | 17.78° C | 75% | 1008.5 hPa | 0 mm | - | 0 W/m² | - |
| 1778031638 | 18.33° C | 71% | 1008.2 hPa | 0 mm | - | 0 W/m² | - |
| 1778031337 | 20° C | 62% | 1008.1 hPa | 0 mm | - | 0 W/m² | - |
| 1778031033 | 20° C | 58% | 1008.1 hPa | 0 mm | - | 0 W/m² | - |
| 1778030729 | 20° C | 57% | 1008 hPa | 0 mm | - | 0 W/m² | - |
| 1778030426 | 20° C | 57% | 1008 hPa | 0 mm | - | 0 W/m² | - |
| 1778030124 | 20° C | 57% | 1008 hPa | 0 mm | - | 0 W/m² | - |
| 1778029820 | 20° C | 58% | 1007.7 hPa | 0 mm | - | 0 W/m² | - |
| 1778029514 | 20° C | 57% | 1007.8 hPa | 0 mm | - | 0 W/m² | - |
| 1778029210 | 20.56° C | 57% | 1007.9 hPa | 0 mm | - | 0 W/m² | - |
| 1778028907 | 20.56° C | 57% | 1007.7 hPa | 0 mm | - | 0 W/m² | - |
| 1778028603 | 20° C | 57% | 1007.8 hPa | 0 mm | - | 0 W/m² | - |
| 1778028301 | 20° C | 58% | 1007.7 hPa | 0 mm | - | 0 W/m² | - |
| 1778027996 | 20.56° C | 58% | 1007.7 hPa | 0 mm | - | 0 W/m² | - |
| 1778027693 | 20.56° C | 58% | 1008 hPa | 0 mm | - | 0 W/m² | - |
| 1778027389 | 20.56° C | 58% | 1007.7 hPa | 0 mm | - | 0 W/m² | - |
| 1778027085 | 20.56° C | 59% | 1008.1 hPa | 0 mm | - | 0 W/m² | - |
| 1778026781 | 20.56° C | 59% | 1007.9 hPa | 0 mm | - | 0 W/m² | - |
| 1778026478 | 20.56° C | 59% | 1007.7 hPa | 0 mm | - | 0 W/m² | - |
| 1778026175 | 20.56° C | 60% | 1008.2 hPa | 0 mm | - | 0 W/m² | - |
| 1778025873 | 20.56° C | 59% | 1007.9 hPa | 0 mm | - | 3 W/m² | - |
* Rain latest hour (hover to see other rain measurements)
** Current wind speed in m/s (hover to see current wind gust speed)